Main page
METAR-TAF:

METAR-TAF

Airports :

Madrid–Torrejón Airport

Madrid-Torrejón, Spain

latitude: 40-29N, longitude: 003-27W, elevation: 607 m

Current weather observation

The report was made 28 minutes ago, at 11:30 UTC
Wind 2 kt from the South/Southwest
Temperature 22°C
Humidity 38%
Pressure 1018 hPa
Visibility 10 km or more
no clouds below 1500 m and no cumulonimbus

METAR: LETO 161130Z 20002KT CAVOK 22/07 Q1018 NOSIG

Time: 13:58 (11:58 UTC)

Forecast

The report was made 58 minutes ago, at 11:00 UTC
Forecast valid from 16 at 12 UTC to 17 at 12 UTC
Wind 6 kt from the North/Northeast
Visibility 10 km or more
no clouds below 1500 m and no cumulonimbus

TAF: LETO 161100Z 1612/1712 02006KT CAVOK TX27/1615Z TN08/1706Z

Weather observations and forecasts of more than 4000 airports (METAR and TAF reports).

The available stations are represented by yellow and red dots on the map.

Hover mouse over dot to see the name of the station.

Then click to see weather observations and forecasts.

To change the map : click on the green buttons with a black cross to zoom in, on the green button with a dash to zoom out, or on the green arrows for adjacent maps.


METAR-TAF: